sensor_id;sensor_type;location;lat;lon;timestamp;temperature;humidity
26541;DHT22;14206;50.202;10.948;2023-05-03T00:00:18;6.70;96.60
26541;DHT22;14206;50.202;10.948;2023-05-03T00:02:46;6.60;96.60
26541;DHT22;14206;50.202;10.948;2023-05-03T00:05:13;6.70;96.60
26541;DHT22;14206;50.202;10.948;2023-05-03T00:07:42;6.70;96.60
26541;DHT22;14206;50.202;10.948;2023-05-03T00:10:10;6.70;96.60
26541;DHT22;14206;50.202;10.948;2023-05-03T00:12:39;6.70;96.60
26541;DHT22;14206;50.202;10.948;2023-05-03T00:15:07;6.70;96.60
26541;DHT22;14206;50.202;10.948;2023-05-03T00:17:37;6.70;96.60
26541;DHT22;14206;50.202;10.948;2023-05-03T00:20:05;6.70;96.60
26541;DHT22;14206;50.202;10.948;2023-05-03T00:22:33;6.60;96.60
26541;DHT22;14206;50.202;10.948;2023-05-03T00:25:00;6.60;96.60
26541;DHT22;14206;50.202;10.948;2023-05-03T00:27:27;6.60;96.60
26541;DHT22;14206;50.202;10.948;2023-05-03T00:29:54;6.50;96.60
26541;DHT22;14206;50.202;10.948;2023-05-03T00:32:21;6.50;96.60
26541;DHT22;14206;50.202;10.948;2023-05-03T00:34:55;6.50;96.60
26541;DHT22;14206;50.202;10.948;2023-05-03T00:37:23;6.50;96.60
26541;DHT22;14206;50.202;10.948;2023-05-03T00:39:51;6.50;96.60
26541;DHT22;14206;50.202;10.948;2023-05-03T00:42:17;6.40;96.60
26541;DHT22;14206;50.202;10.948;2023-05-03T00:44:44;6.40;96.60
26541;DHT22;14206;50.202;10.948;2023-05-03T00:47:11;6.40;96.60
26541;DHT22;14206;50.202;10.948;2023-05-03T00:49:38;6.30;96.60
26541;DHT22;14206;50.202;10.948;2023-05-03T00:52:05;6.30;96.40
26541;DHT22;14206;50.202;10.948;2023-05-03T00:54:34;6.20;96.60
26541;DHT22;14206;50.202;10.948;2023-05-03T00:57:03;6.10;96.50
26541;DHT22;14206;50.202;10.948;2023-05-03T00:59:31;6.10;96.50
26541;DHT22;14206;50.202;10.948;2023-05-03T01:01:59;6.10;96.10
26541;DHT22;14206;50.202;10.948;2023-05-03T01:04:27;6.00;96.30
26541;DHT22;14206;50.202;10.948;2023-05-03T01:07:14;6.00;96.20
26541;DHT22;14206;50.202;10.948;2023-05-03T01:18:20;5.70;96.40
26541;DHT22;14206;50.202;10.948;2023-05-03T01:20:50;5.70;96.60
26541;DHT22;14206;50.202;10.948;2023-05-03T01:25:57;5.60;96.60
26541;DHT22;14206;50.202;10.948;2023-05-03T01:28:24;5.60;96.60
26541;DHT22;14206;50.202;10.948;2023-05-03T01:30:51;5.60;96.60
26541;DHT22;14206;50.202;10.948;2023-05-03T01:36:10;5.50;96.60
26541;DHT22;14206;50.202;10.948;2023-05-03T01:38:38;5.50;96.60
26541;DHT22;14206;50.202;10.948;2023-05-03T01:41:09;5.40;96.60
26541;DHT22;14206;50.202;10.948;2023-05-03T01:43:37;5.30;96.60
26541;DHT22;14206;50.202;10.948;2023-05-03T01:46:06;5.30;96.60
26541;DHT22;14206;50.202;10.948;2023-05-03T01:48:33;5.30;96.60
26541;DHT22;14206;50.202;10.948;2023-05-03T01:50:59;5.30;96.60
26541;DHT22;14206;50.202;10.948;2023-05-03T01:53:27;5.30;96.60
26541;DHT22;14206;50.202;10.948;2023-05-03T01:55:53;5.40;96.60
26541;DHT22;14206;50.202;10.948;2023-05-03T01:58:20;5.40;96.60
26541;DHT22;14206;50.202;10.948;2023-05-03T02:00:47;5.60;96.60
26541;DHT22;14206;50.202;10.948;2023-05-03T02:03:14;5.70;96.60
26541;DHT22;14206;50.202;10.948;2023-05-03T02:05:41;5.90;96.60
26541;DHT22;14206;50.202;10.948;2023-05-03T02:08:08;6.00;96.60
26541;DHT22;14206;50.202;10.948;2023-05-03T02:10:35;6.10;96.60
26541;DHT22;14206;50.202;10.948;2023-05-03T02:13:01;6.20;96.60
26541;DHT22;14206;50.202;10.948;2023-05-03T02:15:29;6.10;96.60
26541;DHT22;14206;50.202;10.948;2023-05-03T02:17:56;6.10;96.60
26541;DHT22;14206;50.202;10.948;2023-05-03T02:20:24;6.10;96.60
26541;DHT22;14206;50.202;10.948;2023-05-03T02:22:51;6.10;96.60
26541;DHT22;14206;50.202;10.948;2023-05-03T02:25:17;6.00;96.60
26541;DHT22;14206;50.202;10.948;2023-05-03T02:27:44;6.00;96.60
26541;DHT22;14206;50.202;10.948;2023-05-03T02:30:11;6.00;96.60
26541;DHT22;14206;50.202;10.948;2023-05-03T02:32:42;5.90;96.60
26541;DHT22;14206;50.202;10.948;2023-05-03T02:35:09;5.90;96.60
26541;DHT22;14206;50.202;10.948;2023-05-03T02:37:36;5.80;96.60
26541;DHT22;14206;50.202;10.948;2023-05-03T02:40:08;5.80;96.40
26541;DHT22;14206;50.202;10.948;2023-05-03T02:42:35;5.80;95.90
26541;DHT22;14206;50.202;10.948;2023-05-03T02:45:04;5.80;96.10
26541;DHT22;14206;50.202;10.948;2023-05-03T02:47:31;5.80;96.00
26541;DHT22;14206;50.202;10.948;2023-05-03T02:49:58;5.80;95.60
26541;DHT22;14206;50.202;10.948;2023-05-03T02:52:25;5.80;95.50
26541;DHT22;14206;50.202;10.948;2023-05-03T02:54:52;5.80;95.70
26541;DHT22;14206;50.202;10.948;2023-05-03T02:57:19;5.80;95.50
26541;DHT22;14206;50.202;10.948;2023-05-03T02:59:46;5.80;95.40
26541;DHT22;14206;50.202;10.948;2023-05-03T03:02:13;5.80;95.00
26541;DHT22;14206;50.202;10.948;2023-05-03T03:04:39;5.80;95.00
26541;DHT22;14206;50.202;10.948;2023-05-03T03:07:07;5.80;94.80
26541;DHT22;14206;50.202;10.948;2023-05-03T03:09:34;5.80;94.50
26541;DHT22;14206;50.202;10.948;2023-05-03T03:12:01;5.70;94.40
26541;DHT22;14206;50.202;10.948;2023-05-03T03:14:29;5.70;94.40
26541;DHT22;14206;50.202;10.948;2023-05-03T03:16:56;5.70;94.30
26541;DHT22;14206;50.202;10.948;2023-05-03T03:19:23;5.70;94.20
26541;DHT22;14206;50.202;10.948;2023-05-03T03:21:50;5.70;94.10
26541;DHT22;14206;50.202;10.948;2023-05-03T03:24:17;5.60;94.00
26541;DHT22;14206;50.202;10.948;2023-05-03T03:26:44;5.60;93.90
26541;DHT22;14206;50.202;10.948;2023-05-03T03:29:11;5.60;94.20
26541;DHT22;14206;50.202;10.948;2023-05-03T03:31:41;5.60;94.40
26541;DHT22;14206;50.202;10.948;2023-05-03T03:34:08;5.60;94.30
26541;DHT22;14206;50.202;10.948;2023-05-03T03:36:36;5.60;94.50
26541;DHT22;14206;50.202;10.948;2023-05-03T03:39:05;5.60;94.60
26541;DHT22;14206;50.202;10.948;2023-05-03T03:41:34;5.60;95.00
26541;DHT22;14206;50.202;10.948;2023-05-03T03:44:02;5.60;95.10
26541;DHT22;14206;50.202;10.948;2023-05-03T03:46:29;5.60;95.30
26541;DHT22;14206;50.202;10.948;2023-05-03T03:48:57;5.50;95.50
26541;DHT22;14206;50.202;10.948;2023-05-03T03:51:26;5.50;95.40
26541;DHT22;14206;50.202;10.948;2023-05-03T03:53:53;5.50;95.70
26541;DHT22;14206;50.202;10.948;2023-05-03T03:56:23;5.50;96.00
26541;DHT22;14206;50.202;10.948;2023-05-03T03:58:52;5.50;95.90
26541;DHT22;14206;50.202;10.948;2023-05-03T04:01:18;5.40;95.80
26541;DHT22;14206;50.202;10.948;2023-05-03T04:03:45;5.40;95.80
26541;DHT22;14206;50.202;10.948;2023-05-03T04:06:15;5.40;95.50
26541;DHT22;14206;50.202;10.948;2023-05-03T04:08:42;5.40;95.00
26541;DHT22;14206;50.202;10.948;2023-05-03T04:11:11;5.30;95.40
26541;DHT22;14206;50.202;10.948;2023-05-03T04:13:44;5.20;95.20
26541;DHT22;14206;50.202;10.948;2023-05-03T04:16:11;5.10;95.80
26541;DHT22;14206;50.202;10.948;2023-05-03T04:18:39;5.00;96.60
26541;DHT22;14206;50.202;10.948;2023-05-03T04:21:07;5.00;96.60
26541;DHT22;14206;50.202;10.948;2023-05-03T04:23:34;5.00;96.60
26541;DHT22;14206;50.202;10.948;2023-05-03T04:26:03;5.10;96.60
26541;DHT22;14206;50.202;10.948;2023-05-03T04:28:33;5.10;96.60
26541;DHT22;14206;50.202;10.948;2023-05-03T04:31:00;5.20;96.60
26541;DHT22;14206;50.202;10.948;2023-05-03T04:33:28;5.40;96.60
26541;DHT22;14206;50.202;10.948;2023-05-03T04:36:01;5.60;96.60
26541;DHT22;14206;50.202;10.948;2023-05-03T04:38:28;5.70;96.60
26541;DHT22;14206;50.202;10.948;2023-05-03T04:40:57;5.90;96.60
26541;DHT22;14206;50.202;10.948;2023-05-03T04:43:24;6.00;96.20
26541;DHT22;14206;50.202;10.948;2023-05-03T04:45:51;6.10;95.70
26541;DHT22;14206;50.202;10.948;2023-05-03T04:48:22;6.20;95.60
26541;DHT22;14206;50.202;10.948;2023-05-03T04:50:49;6.30;95.40
26541;DHT22;14206;50.202;10.948;2023-05-03T04:53:18;6.40;95.90
26541;DHT22;14206;50.202;10.948;2023-05-03T04:55:52;6.50;95.80
26541;DHT22;14206;50.202;10.948;2023-05-03T04:58:19;6.60;95.90
26541;DHT22;14206;50.202;10.948;2023-05-03T05:00:47;6.70;95.70
26541;DHT22;14206;50.202;10.948;2023-05-03T05:03:22;6.80;96.00
26541;DHT22;14206;50.202;10.948;2023-05-03T05:05:50;7.00;95.40
26541;DHT22;14206;50.202;10.948;2023-05-03T05:08:17;7.10;94.90
26541;DHT22;14206;50.202;10.948;2023-05-03T05:10:50;7.20;94.80
26541;DHT22;14206;50.202;10.948;2023-05-03T05:13:21;7.20;95.50
26541;DHT22;14206;50.202;10.948;2023-05-03T05:15:48;7.20;95.30
26541;DHT22;14206;50.202;10.948;2023-05-03T05:18:16;7.20;95.10
26541;DHT22;14206;50.202;10.948;2023-05-03T05:20:44;7.30;94.60
26541;DHT22;14206;50.202;10.948;2023-05-03T05:23:11;7.40;94.60
26541;DHT22;14206;50.202;10.948;2023-05-03T05:25:40;7.50;94.90
26541;DHT22;14206;50.202;10.948;2023-05-03T05:28:09;7.70;94.60
26541;DHT22;14206;50.202;10.948;2023-05-03T05:30:37;7.90;94.30
26541;DHT22;14206;50.202;10.948;2023-05-03T05:33:04;8.10;93.40
26541;DHT22;14206;50.202;10.948;2023-05-03T05:35:32;8.20;91.70
26541;DHT22;14206;50.202;10.948;2023-05-03T05:37:59;8.30;91.20
26541;DHT22;14206;50.202;10.948;2023-05-03T05:40:27;8.40;91.00
26541;DHT22;14206;50.202;10.948;2023-05-03T05:42:56;8.50;89.70
26541;DHT22;14206;50.202;10.948;2023-05-03T05:45:24;8.60;89.60
26541;DHT22;14206;50.202;10.948;2023-05-03T05:47:52;8.70;89.10
26541;DHT22;14206;50.202;10.948;2023-05-03T05:50:19;8.80;88.20
26541;DHT22;14206;50.202;10.948;2023-05-03T05:52:53;8.90;88.10
26541;DHT22;14206;50.202;10.948;2023-05-03T05:55:22;9.00;88.00
26541;DHT22;14206;50.202;10.948;2023-05-03T05:57:49;9.20;87.30
26541;DHT22;14206;50.202;10.948;2023-05-03T06:00:19;9.40;85.70
26541;DHT22;14206;50.202;10.948;2023-05-03T06:02:47;9.50;84.00
26541;DHT22;14206;50.202;10.948;2023-05-03T06:05:17;9.70;84.50
26541;DHT22;14206;50.202;10.948;2023-05-03T06:07:44;9.90;83.10
26541;DHT22;14206;50.202;10.948;2023-05-03T06:10:11;10.10;82.80
26541;DHT22;14206;50.202;10.948;2023-05-03T06:12:43;10.20;81.60
26541;DHT22;14206;50.202;10.948;2023-05-03T06:15:15;10.30;80.50
26541;DHT22;14206;50.202;10.948;2023-05-03T06:17:42;10.40;79.70
26541;DHT22;14206;50.202;10.948;2023-05-03T06:20:10;10.50;79.80
26541;DHT22;14206;50.202;10.948;2023-05-03T06:22:39;10.70;78.90
26541;DHT22;14206;50.202;10.948;2023-05-03T06:25:06;10.80;79.30
26541;DHT22;14206;50.202;10.948;2023-05-03T06:27:35;11.00;77.40
26541;DHT22;14206;50.202;10.948;2023-05-03T06:30:05;11.20;77.90
26541;DHT22;14206;50.202;10.948;2023-05-03T06:32:32;11.40;77.20
26541;DHT22;14206;50.202;10.948;2023-05-03T06:34:59;11.50;76.30
26541;DHT22;14206;50.202;10.948;2023-05-03T06:37:27;11.70;77.20
26541;DHT22;14206;50.202;10.948;2023-05-03T06:39:54;12.00;74.90
26541;DHT22;14206;50.202;10.948;2023-05-03T06:42:21;12.10;74.90
26541;DHT22;14206;50.202;10.948;2023-05-03T06:45:00;12.20;74.40
26541;DHT22;14206;50.202;10.948;2023-05-03T06:47:27;12.40;72.80
26541;DHT22;14206;50.202;10.948;2023-05-03T06:49:55;12.50;73.00
26541;DHT22;14206;50.202;10.948;2023-05-03T06:52:22;12.60;71.70
26541;DHT22;14206;50.202;10.948;2023-05-03T06:54:49;12.70;71.30
26541;DHT22;14206;50.202;10.948;2023-05-03T06:57:16;12.90;70.60
26541;DHT22;14206;50.202;10.948;2023-05-03T06:59:43;13.00;69.90
26541;DHT22;14206;50.202;10.948;2023-05-03T07:02:10;13.10;71.70
26541;DHT22;14206;50.202;10.948;2023-05-03T07:04:37;13.20;68.50
26541;DHT22;14206;50.202;10.948;2023-05-03T07:07:03;13.10;67.90
26541;DHT22;14206;50.202;10.948;2023-05-03T07:09:31;13.20;68.80
26541;DHT22;14206;50.202;10.948;2023-05-03T07:12:09;13.30;68.00
26541;DHT22;14206;50.202;10.948;2023-05-03T07:14:37;13.40;69.40
26541;DHT22;14206;50.202;10.948;2023-05-03T07:17:05;13.50;69.00
26541;DHT22;14206;50.202;10.948;2023-05-03T07:19:32;13.70;68.20
26541;DHT22;14206;50.202;10.948;2023-05-03T07:21:59;14.40;67.80
26541;DHT22;14206;50.202;10.948;2023-05-03T07:24:28;15.10;65.40
26541;DHT22;14206;50.202;10.948;2023-05-03T07:26:56;15.70;64.30
26541;DHT22;14206;50.202;10.948;2023-05-03T07:29:23;16.50;61.00
26541;DHT22;14206;50.202;10.948;2023-05-03T07:31:50;17.10;61.20
26541;DHT22;14206;50.202;10.948;2023-05-03T07:34:19;17.80;59.30
26541;DHT22;14206;50.202;10.948;2023-05-03T07:36:46;18.40;58.90
26541;DHT22;14206;50.202;10.948;2023-05-03T07:39:13;19.00;57.50
26541;DHT22;14206;50.202;10.948;2023-05-03T07:41:40;19.40;56.80
26541;DHT22;14206;50.202;10.948;2023-05-03T07:44:07;19.80;55.10
26541;DHT22;14206;50.202;10.948;2023-05-03T07:46:34;20.00;53.20
26541;DHT22;14206;50.202;10.948;2023-05-03T07:49:04;20.20;53.90
26541;DHT22;14206;50.202;10.948;2023-05-03T07:51:35;20.70;53.40
26541;DHT22;14206;50.202;10.948;2023-05-03T07:54:02;21.20;52.30
26541;DHT22;14206;50.202;10.948;2023-05-03T07:56:30;21.70;53.00
26541;DHT22;14206;50.202;10.948;2023-05-03T07:58:57;22.20;51.50
26541;DHT22;14206;50.202;10.948;2023-05-03T08:01:36;22.70;49.60
26541;DHT22;14206;50.202;10.948;2023-05-03T08:04:03;23.10;50.30
26541;DHT22;14206;50.202;10.948;2023-05-03T08:06:32;23.60;49.00
26541;DHT22;14206;50.202;10.948;2023-05-03T08:09:01;24.10;47.70
26541;DHT22;14206;50.202;10.948;2023-05-03T08:11:27;24.60;46.00
26541;DHT22;14206;50.202;10.948;2023-05-03T08:13:55;25.00;44.30
26541;DHT22;14206;50.202;10.948;2023-05-03T08:16:21;25.50;45.60
26541;DHT22;14206;50.202;10.948;2023-05-03T08:18:49;25.70;44.60
26541;DHT22;14206;50.202;10.948;2023-05-03T08:21:15;26.00;43.40
26541;DHT22;14206;50.202;10.948;2023-05-03T08:23:43;26.30;43.80
26541;DHT22;14206;50.202;10.948;2023-05-03T08:26:10;26.50;43.00
26541;DHT22;14206;50.202;10.948;2023-05-03T08:28:40;26.90;42.30
26541;DHT22;14206;50.202;10.948;2023-05-03T08:31:07;27.30;42.10
26541;DHT22;14206;50.202;10.948;2023-05-03T08:33:34;27.50;41.40
26541;DHT22;14206;50.202;10.948;2023-05-03T08:36:01;27.60;40.80
26541;DHT22;14206;50.202;10.948;2023-05-03T08:38:28;27.70;43.20
26541;DHT22;14206;50.202;10.948;2023-05-03T08:40:57;28.10;40.90
26541;DHT22;14206;50.202;10.948;2023-05-03T08:43:27;28.50;40.40
26541;DHT22;14206;50.202;10.948;2023-05-03T08:45:54;28.70;39.10
26541;DHT22;14206;50.202;10.948;2023-05-03T08:48:21;28.60;40.80
26541;DHT22;14206;50.202;10.948;2023-05-03T08:50:50;28.80;38.70
26541;DHT22;14206;50.202;10.948;2023-05-03T08:53:19;28.80;39.10
26541;DHT22;14206;50.202;10.948;2023-05-03T08:55:46;28.80;39.60
26541;DHT22;14206;50.202;10.948;2023-05-03T08:58:13;28.90;40.20
26541;DHT22;14206;50.202;10.948;2023-05-03T09:00:40;29.10;38.10
26541;DHT22;14206;50.202;10.948;2023-05-03T09:03:11;29.10;39.60
26541;DHT22;14206;50.202;10.948;2023-05-03T09:05:38;29.30;38.50
26541;DHT22;14206;50.202;10.948;2023-05-03T09:08:09;29.40;38.40
26541;DHT22;14206;50.202;10.948;2023-05-03T09:10:38;29.50;38.10
26541;DHT22;14206;50.202;10.948;2023-05-03T09:13:05;29.50;37.90
26541;DHT22;14206;50.202;10.948;2023-05-03T09:15:33;29.30;38.10
26541;DHT22;14206;50.202;10.948;2023-05-03T09:20:39;29.40;36.30
26541;DHT22;14206;50.202;10.948;2023-05-03T09:23:07;29.50;37.40
26541;DHT22;14206;50.202;10.948;2023-05-03T09:25:45;29.80;37.10
26541;DHT22;14206;50.202;10.948;2023-05-03T09:28:14;29.80;37.20
26541;DHT22;14206;50.202;10.948;2023-05-03T09:30:41;29.60;37.80
26541;DHT22;14206;50.202;10.948;2023-05-03T09:33:08;29.70;36.90
26541;DHT22;14206;50.202;10.948;2023-05-03T09:35:55;29.70;38.10
26541;DHT22;14206;50.202;10.948;2023-05-03T09:38:33;29.90;38.00
26541;DHT22;14206;50.202;10.948;2023-05-03T09:41:00;30.00;37.20
26541;DHT22;14206;50.202;10.948;2023-05-03T09:43:28;29.90;36.80
26541;DHT22;14206;50.202;10.948;2023-05-03T09:46:08;29.90;35.50
26541;DHT22;14206;50.202;10.948;2023-05-03T09:48:38;29.90;35.20
26541;DHT22;14206;50.202;10.948;2023-05-03T09:51:06;30.10;37.20
26541;DHT22;14206;50.202;10.948;2023-05-03T09:53:35;30.10;36.70
26541;DHT22;14206;50.202;10.948;2023-05-03T09:56:05;30.20;36.90
26541;DHT22;14206;50.202;10.948;2023-05-03T09:58:38;30.40;37.40
26541;DHT22;14206;50.202;10.948;2023-05-03T10:01:06;30.60;36.80
26541;DHT22;14206;50.202;10.948;2023-05-03T10:03:50;30.60;36.20
26541;DHT22;14206;50.202;10.948;2023-05-03T10:11:25;30.70;36.50
26541;DHT22;14206;50.202;10.948;2023-05-03T10:13:53;30.90;36.30
26541;DHT22;14206;50.202;10.948;2023-05-03T10:16:38;31.10;36.50
26541;DHT22;14206;50.202;10.948;2023-05-03T10:19:20;31.10;33.50
26541;DHT22;14206;50.202;10.948;2023-05-03T10:24:25;31.00;35.90
26541;DHT22;14206;50.202;10.948;2023-05-03T10:26:54;31.00;35.30
26541;DHT22;14206;50.202;10.948;2023-05-03T10:32:34;31.20;35.00
26541;DHT22;14206;50.202;10.948;2023-05-03T10:37:32;30.80;35.90
26541;DHT22;14206;50.202;10.948;2023-05-03T10:40:14;31.20;35.20
26541;DHT22;14206;50.202;10.948;2023-05-03T10:42:54;31.20;33.90
26541;DHT22;14206;50.202;10.948;2023-05-03T10:45:27;31.20;35.90
26541;DHT22;14206;50.202;10.948;2023-05-03T10:50:37;31.90;33.30
26541;DHT22;14206;50.202;10.948;2023-05-03T10:53:04;31.70;34.60
26541;DHT22;14206;50.202;10.948;2023-05-03T10:55:32;31.60;35.40
26541;DHT22;14206;50.202;10.948;2023-05-03T10:57:59;31.60;34.60
26541;DHT22;14206;50.202;10.948;2023-05-03T11:00:35;31.80;35.00
26541;DHT22;14206;50.202;10.948;2023-05-03T11:06:26;32.20;32.60
26541;DHT22;14206;50.202;10.948;2023-05-03T11:08:53;32.30;34.20
26541;DHT22;14206;50.202;10.948;2023-05-03T11:11:20;32.50;34.00
26541;DHT22;14206;50.202;10.948;2023-05-03T11:13:49;32.60;34.70
26541;DHT22;14206;50.202;10.948;2023-05-03T11:16:17;32.70;34.10
26541;DHT22;14206;50.202;10.948;2023-05-03T11:18:44;32.60;31.80
26541;DHT22;14206;50.202;10.948;2023-05-03T11:21:12;32.30;33.00
26541;DHT22;14206;50.202;10.948;2023-05-03T11:23:39;32.40;33.40
26541;DHT22;14206;50.202;10.948;2023-05-03T11:26:08;32.50;33.60
26541;DHT22;14206;50.202;10.948;2023-05-03T11:28:42;32.10;32.20
26541;DHT22;14206;50.202;10.948;2023-05-03T11:31:10;31.80;34.60
26541;DHT22;14206;50.202;10.948;2023-05-03T11:33:38;31.90;32.80
26541;DHT22;14206;50.202;10.948;2023-05-03T11:36:06;31.70;32.50
26541;DHT22;14206;50.202;10.948;2023-05-03T11:38:37;31.80;33.40
26541;DHT22;14206;50.202;10.948;2023-05-03T11:41:13;31.90;34.30
26541;DHT22;14206;50.202;10.948;2023-05-03T11:43:44;31.60;33.60
26541;DHT22;14206;50.202;10.948;2023-05-03T11:46:18;31.20;32.80
26541;DHT22;14206;50.202;10.948;2023-05-03T11:48:47;30.90;33.70
26541;DHT22;14206;50.202;10.948;2023-05-03T11:51:14;30.80;34.10
26541;DHT22;14206;50.202;10.948;2023-05-03T11:53:41;30.80;34.90
26541;DHT22;14206;50.202;10.948;2023-05-03T11:56:12;30.70;36.00
26541;DHT22;14206;50.202;10.948;2023-05-03T11:58:54;30.70;34.40
26541;DHT22;14206;50.202;10.948;2023-05-03T12:01:25;30.80;35.30
26541;DHT22;14206;50.202;10.948;2023-05-03T12:04:00;31.20;36.10
26541;DHT22;14206;50.202;10.948;2023-05-03T12:06:30;31.30;34.60
26541;DHT22;14206;50.202;10.948;2023-05-03T12:09:01;31.20;33.80
26541;DHT22;14206;50.202;10.948;2023-05-03T12:11:29;30.80;34.50
26541;DHT22;14206;50.202;10.948;2023-05-03T12:14:06;30.50;34.70
26541;DHT22;14206;50.202;10.948;2023-05-03T12:16:47;30.40;34.10
26541;DHT22;14206;50.202;10.948;2023-05-03T12:19:27;30.30;34.70
26541;DHT22;14206;50.202;10.948;2023-05-03T12:21:58;30.20;35.90
26541;DHT22;14206;50.202;10.948;2023-05-03T12:24:30;30.10;35.10
26541;DHT22;14206;50.202;10.948;2023-05-03T12:26:59;30.10;33.70
26541;DHT22;14206;50.202;10.948;2023-05-03T12:29:29;29.90;35.10
26541;DHT22;14206;50.202;10.948;2023-05-03T12:32:01;29.80;34.90
26541;DHT22;14206;50.202;10.948;2023-05-03T12:34:29;29.80;36.60
26541;DHT22;14206;50.202;10.948;2023-05-03T12:37:01;29.70;35.10
26541;DHT22;14206;50.202;10.948;2023-05-03T12:39:31;29.50;34.10
26541;DHT22;14206;50.202;10.948;2023-05-03T12:41:59;29.30;36.80
26541;DHT22;14206;50.202;10.948;2023-05-03T12:44:30;28.70;36.10
26541;DHT22;14206;50.202;10.948;2023-05-03T12:47:01;28.20;37.60
26541;DHT22;14206;50.202;10.948;2023-05-03T12:49:30;28.00;37.80
26541;DHT22;14206;50.202;10.948;2023-05-03T12:51:57;27.70;39.30
26541;DHT22;14206;50.202;10.948;2023-05-03T12:54:29;27.30;38.80
26541;DHT22;14206;50.202;10.948;2023-05-03T12:57:00;26.80;39.00
26541;DHT22;14206;50.202;10.948;2023-05-03T12:59:35;26.50;40.40
26541;DHT22;14206;50.202;10.948;2023-05-03T13:02:09;26.10;40.30
26541;DHT22;14206;50.202;10.948;2023-05-03T13:04:39;26.00;40.30
26541;DHT22;14206;50.202;10.948;2023-05-03T13:07:09;25.80;39.60
26541;DHT22;14206;50.202;10.948;2023-05-03T13:09:44;25.80;39.60
26541;DHT22;14206;50.202;10.948;2023-05-03T13:12:31;25.80;40.00
26541;DHT22;14206;50.202;10.948;2023-05-03T13:15:00;24.90;40.30
26541;DHT22;14206;50.202;10.948;2023-05-03T13:17:29;23.90;42.20
26541;DHT22;14206;50.202;10.948;2023-05-03T13:19:56;23.10;42.40
26541;DHT22;14206;50.202;10.948;2023-05-03T13:22:24;22.50;42.60
26541;DHT22;14206;50.202;10.948;2023-05-03T13:24:51;22.00;43.10
26541;DHT22;14206;50.202;10.948;2023-05-03T13:27:18;21.50;42.90
26541;DHT22;14206;50.202;10.948;2023-05-03T13:29:45;21.20;45.40
26541;DHT22;14206;50.202;10.948;2023-05-03T13:32:15;21.10;46.00
26541;DHT22;14206;50.202;10.948;2023-05-03T13:34:42;20.80;45.30
26541;DHT22;14206;50.202;10.948;2023-05-03T13:37:09;20.50;45.20
26541;DHT22;14206;50.202;10.948;2023-05-03T13:39:37;20.10;46.20
26541;DHT22;14206;50.202;10.948;2023-05-03T13:42:04;19.90;45.30
26541;DHT22;14206;50.202;10.948;2023-05-03T13:44:30;19.60;44.40
26541;DHT22;14206;50.202;10.948;2023-05-03T13:46:57;19.30;47.70
26541;DHT22;14206;50.202;10.948;2023-05-03T13:49:24;19.10;47.50
26541;DHT22;14206;50.202;10.948;2023-05-03T13:51:51;19.00;46.90
26541;DHT22;14206;50.202;10.948;2023-05-03T13:54:18;18.90;47.30
26541;DHT22;14206;50.202;10.948;2023-05-03T13:56:45;18.80;47.80
26541;DHT22;14206;50.202;10.948;2023-05-03T13:59:12;18.70;49.80
26541;DHT22;14206;50.202;10.948;2023-05-03T14:01:42;18.70;49.10
26541;DHT22;14206;50.202;10.948;2023-05-03T14:04:09;18.60;48.00
26541;DHT22;14206;50.202;10.948;2023-05-03T14:06:37;18.60;49.60
26541;DHT22;14206;50.202;10.948;2023-05-03T14:09:08;18.50;49.50
26541;DHT22;14206;50.202;10.948;2023-05-03T14:11:35;18.50;50.40
26541;DHT22;14206;50.202;10.948;2023-05-03T14:14:01;18.50;49.20
26541;DHT22;14206;50.202;10.948;2023-05-03T14:16:29;18.40;51.40
26541;DHT22;14206;50.202;10.948;2023-05-03T14:19:07;18.40;50.60
26541;DHT22;14206;50.202;10.948;2023-05-03T14:21:37;18.30;50.90
26541;DHT22;14206;50.202;10.948;2023-05-03T14:24:04;18.30;53.00
26541;DHT22;14206;50.202;10.948;2023-05-03T14:26:32;18.30;51.50
26541;DHT22;14206;50.202;10.948;2023-05-03T14:28:59;18.20;51.20
26541;DHT22;14206;50.202;10.948;2023-05-03T14:31:27;18.10;51.40
26541;DHT22;14206;50.202;10.948;2023-05-03T14:33:54;18.10;50.10
26541;DHT22;14206;50.202;10.948;2023-05-03T14:36:21;18.10;51.40
26541;DHT22;14206;50.202;10.948;2023-05-03T14:38:48;18.10;52.10
26541;DHT22;14206;50.202;10.948;2023-05-03T14:41:15;18.10;52.50
26541;DHT22;14206;50.202;10.948;2023-05-03T14:43:42;18.00;52.20
26541;DHT22;14206;50.202;10.948;2023-05-03T14:46:08;18.00;51.90
26541;DHT22;14206;50.202;10.948;2023-05-03T14:48:36;18.00;51.80
26541;DHT22;14206;50.202;10.948;2023-05-03T14:51:04;17.90;52.20
26541;DHT22;14206;50.202;10.948;2023-05-03T14:53:31;17.90;50.50
26541;DHT22;14206;50.202;10.948;2023-05-03T14:55:58;17.80;49.60
26541;DHT22;14206;50.202;10.948;2023-05-03T14:58:25;17.80;50.70
26541;DHT22;14206;50.202;10.948;2023-05-03T15:00:51;17.80;49.90
26541;DHT22;14206;50.202;10.948;2023-05-03T15:03:18;17.80;50.30
26541;DHT22;14206;50.202;10.948;2023-05-03T15:05:47;17.70;50.20
26541;DHT22;14206;50.202;10.948;2023-05-03T15:08:15;17.70;50.90
26541;DHT22;14206;50.202;10.948;2023-05-03T15:10:43;17.70;51.20
26541;DHT22;14206;50.202;10.948;2023-05-03T15:13:11;17.60;51.40
26541;DHT22;14206;50.202;10.948;2023-05-03T15:15:39;17.60;51.20
26541;DHT22;14206;50.202;10.948;2023-05-03T15:18:07;17.50;52.10
26541;DHT22;14206;50.202;10.948;2023-05-03T15:20:34;17.50;52.00
26541;DHT22;14206;50.202;10.948;2023-05-03T15:23:05;17.50;52.00
26541;DHT22;14206;50.202;10.948;2023-05-03T15:25:32;17.50;52.50
26541;DHT22;14206;50.202;10.948;2023-05-03T15:27:58;17.50;53.70
26541;DHT22;14206;50.202;10.948;2023-05-03T15:30:33;17.40;52.00
26541;DHT22;14206;50.202;10.948;2023-05-03T15:33:00;17.40;51.70
26541;DHT22;14206;50.202;10.948;2023-05-03T15:35:27;17.40;50.60
26541;DHT22;14206;50.202;10.948;2023-05-03T15:37:54;17.30;49.20
26541;DHT22;14206;50.202;10.948;2023-05-03T15:40:21;17.40;50.40
26541;DHT22;14206;50.202;10.948;2023-05-03T15:42:52;17.40;50.50
26541;DHT22;14206;50.202;10.948;2023-05-03T15:45:19;17.40;49.80
26541;DHT22;14206;50.202;10.948;2023-05-03T15:47:48;17.40;50.90
26541;DHT22;14206;50.202;10.948;2023-05-03T15:50:15;17.40;50.90
26541;DHT22;14206;50.202;10.948;2023-05-03T15:52:42;17.40;51.80
26541;DHT22;14206;50.202;10.948;2023-05-03T15:55:09;17.30;52.10
26541;DHT22;14206;50.202;10.948;2023-05-03T15:57:36;17.30;51.70
26541;DHT22;14206;50.202;10.948;2023-05-03T16:00:06;17.20;50.30
26541;DHT22;14206;50.202;10.948;2023-05-03T16:02:44;17.20;50.30
26541;DHT22;14206;50.202;10.948;2023-05-03T16:05:11;17.20;51.70
26541;DHT22;14206;50.202;10.948;2023-05-03T16:07:38;17.20;51.20